Terminal Aerodrome Forecast
Issued by NWS

Home | Current Version | Previous Version | Text Only | Print | Product List | Glossary On
Versions: 1 2 3 4 5 6 7 8 9 10 11 12 13 14 15 16 17 18 19 20 21 22 23 24
000
FTUS41 KOKX 031733
TAFSWF
TAF
KSWF 031733Z 0318/0424 VRB05KT P6SM SCT250
     FM032100 12006KT P6SM SCT250
     FM040000 VRB03KT P6SM BKN250
      TEMPO 0407/0411 6SM BR
     FM041400 11007KT P6SM BKN080
     FM041900 14007KT P6SM OVC040
      AMD NOT SKED=

USA.gov is the U.S. government's official web portal to all federal, state and local government web resources and services.